首页
METAR-TAF:

METAR-TAF

机场 :

维多利亚国际机场

維多利亞, 不列颠哥伦比亚, 加拿大

纬度: 48-39N, 经度: 123-26W, 海拔: 20米

当前天气观测

该预报发布于1小时和0分钟前的21:00 UTC
风速6节,风向东转东南
温度 18°C
湿度 64%
气压 1011 hPa
能見度: 48.3公里
多云层高于22000英尺

METAR: CYYJ 262100Z 12006KT 30SM BKN220 18/11 A2986 RMK CI6 SLP114 DENSITY ALT 500FT

时间: 15:00 (22:00 UTC)

预报

该预报发布于4小时和21分钟前的17:39 UTC
预报有效从26日的 18点(UTC)到 27日的 18点(UTC)
风速3节,风向多变
能見度: 10公里
少量云层高于18000英尺
少量云层高于25000英尺
成为
从 26日的 18点(UTC)到 26日的 20点(UTC)
风速5节,风向东转东南
从 26日的 2300点(UTC)
风速8节,风向东转东南
能見度: 10公里
散云层高于8000英尺
多云层高于12000英尺
从 27日的 0900点(UTC)
风速3节,风向多变
能見度: 10公里
散云层高于12000英尺
几率 30%
从 27日的 09点(UTC)到 27日的 13点(UTC)
能見度: 1.6公里
轻雾
从 27日的 1500点(UTC)
风速5节,风向西
能見度: 10公里
天空无云

TAF: CYYJ 261739Z 2618/2718 VRB03KT P6SM FEW180 FEW250 BECMG 2618/2620 12005KT FM262300 12008KT P6SM SCT080 BKN120 FM270900 VRB03KT P6SM SCT120 PROB30 2709/2713 1SM BR FM271500 28005KT P6SM SKC RMK NXT FCST BY 270000Z

超过4000个机场的气象观测和天气预报(METAR&TAF报告)。

可查询的气象台以黄色和红色小点在地图上表示。

将鼠标移到小点上方,可查看气象台名称。

然后点击查看天气观测和预报。

如需切换地图:点击带黑十字的绿色按钮放大地图;点击带横线的绿色按钮缩小地图;或者点击绿色箭头查看邻近地区的地图。


METAR-TAF: